Time;durP1;ratioP1;P1;durP2;ratioP2;P2;SDS_P1;SDS_P2;PMS_P1;PMS_P2;Temp;Humidity;BMP_temperature;BMP_pressure;BME280_temperature;BME280_humidity;BME280_pressure;Samples;Min_cycle;Max_cycle;Signal;HPM_P1;HPM_P2
2022/03/11 00:00:28;;;;;;;7.53;3.72;;;;;;;-5.03;45.58;98971.86;1706939;83;21065;-86
2022/03/11 00:02:56;;;;;;;9.83;4.10;;;;;;;-5.02;45.66;98974.95;1698072;84;21045;-86
2022/03/11 00:05:23;;;;;;;10.95;4.12;;;;;;;-5.03;45.67;98967.98;1699060;84;21025;-87
2022/03/11 00:07:49;;;;;;;9.50;4.17;;;;;;;-5.02;45.69;98967.59;1709766;82;21017;-88
2022/03/11 00:10:16;;;;;;;7.03;4.22;;;;;;;-5.06;45.61;98975.19;1657839;86;21112;-86
2022/03/11 00:12:43;;;;;;;9.45;4.28;;;;;;;-5.11;45.61;98968.03;1693776;84;21033;-86
2022/03/11 00:15:09;;;;;;;7.47;3.67;;;;;;;-5.22;45.63;98968.80;1693823;85;21033;-86
2022/03/11 00:17:36;;;;;;;9.05;4.05;;;;;;;-5.27;45.88;98964.70;1693842;85;21458;-86
2022/03/11 00:20:06;;;;;;;10.55;4.58;;;;;;;-5.29;46.04;98961.14;1693978;85;21037;-86
2022/03/11 00:22:34;;;;;;;12.55;4.45;;;;;;;-5.40;45.92;98964.48;1693966;85;21550;-86
2022/03/11 00:25:00;;;;;;;7.95;4.30;;;;;;;-5.46;45.85;98958.63;1694047;85;21396;-87
2022/03/11 00:27:27;;;;;;;9.15;3.87;;;;;;;-5.48;46.02;98960.65;1693786;85;21089;-87
2022/03/11 00:29:54;;;;;;;8.15;3.40;;;;;;;-5.56;46.09;98955.10;1693944;85;21010;-87
2022/03/11 00:32:21;;;;;;;5.85;3.52;;;;;;;-5.62;46.21;98959.93;1694062;85;21042;-87
2022/03/11 00:34:48;;;;;;;7.12;3.75;;;;;;;-5.66;46.46;98958.03;1693854;85;20986;-86
2022/03/11 00:37:14;;;;;;;8.05;4.08;;;;;;;-5.71;46.68;98959.97;1694619;85;20981;-87
2022/03/11 00:39:41;;;;;;;9.38;4.33;;;;;;;-5.75;46.95;98967.47;1695625;85;20953;-88
2022/03/11 00:42:07;;;;;;;6.62;3.75;;;;;;;-5.75;47.22;98970.05;1694752;85;20988;-88
2022/03/11 00:44:35;;;;;;;12.53;4.45;;;;;;;-5.86;47.20;98960.06;1693966;84;20984;-87
2022/03/11 00:47:02;;;;;;;8.23;4.37;;;;;;;-5.93;47.11;98955.41;1693755;84;21050;-87
2022/03/11 00:49:28;;;;;;;9.73;4.67;;;;;;;-5.99;47.42;98968.87;1693821;85;20968;-87
2022/03/11 00:51:55;;;;;;;10.90;4.80;;;;;;;-5.98;47.59;98964.61;1694197;84;21024;-87
2022/03/11 00:54:21;;;;;;;9.38;5.40;;;;;;;-6.05;47.70;98953.49;1694588;84;21009;-87
2022/03/11 00:56:48;;;;;;;10.88;5.92;;;;;;;-6.18;47.95;98958.03;1694585;84;21414;-87
2022/03/11 00:59:17;;;;;;;11.15;5.15;;;;;;;-6.26;48.13;98954.15;1693828;85;21036;-88
2022/03/11 01:01:44;;;;;;;11.18;5.00;;;;;;;-6.26;48.10;98952.86;1693833;85;21413;-87
2022/03/11 01:04:11;;;;;;;12.18;4.97;;;;;;;-6.31;48.41;98956.47;1693766;85;21112;-88
2022/03/11 01:06:38;;;;;;;9.53;4.00;;;;;;;-6.39;48.42;98947.03;1693557;85;21410;-88
2022/03/11 01:09:05;;;;;;;11.68;4.42;;;;;;;-6.43;48.90;98945.12;1697872;83;21016;-88
2022/03/11 01:11:32;;;;;;;11.33;4.72;;;;;;;-6.46;48.97;98944.05;1698841;84;21008;-87
2022/03/11 01:13:58;;;;;;;8.35;4.08;;;;;;;-6.44;49.33;98947.61;1699133;84;21004;-87
2022/03/11 01:16:25;;;;;;;10.08;4.12;;;;;;;-6.51;48.95;98943.39;1679414;84;21032;-87
2022/03/11 01:18:51;;;;;;;11.22;4.90;;;;;;;-6.50;49.23;98952.03;1699251;84;20979;-88
2022/03/11 01:21:18;;;;;;;8.70;4.42;;;;;;;-6.51;49.16;98952.42;1699078;84;21437;-88
2022/03/11 01:23:45;;;;;;;6.62;3.80;;;;;;;-6.57;49.18;98950.81;1699144;84;20984;-88
2022/03/11 01:26:12;;;;;;;8.53;4.20;;;;;;;-6.62;51.00;98953.54;1699130;84;20992;-87
2022/03/11 01:28:42;;;;;;;7.87;3.62;;;;;;;-6.67;51.47;98954.98;1699215;84;20992;-87
2022/03/11 01:31:11;;;;;;;6.92;3.60;;;;;;;-6.66;50.64;98962.81;1699046;84;20996;-88
2022/03/11 01:33:41;;;;;;;7.12;3.70;;;;;;;-6.64;50.08;98954.74;1699160;84;21437;-85
2022/03/11 01:36:12;;;;;;;8.40;4.08;;;;;;;-6.60;50.42;98951.05;1699735;83;21031;-85
2022/03/11 01:38:40;;;;;;;9.40;3.62;;;;;;;-6.61;50.14;98948.86;1704291;84;21018;-85
2022/03/11 01:41:07;;;;;;;9.20;3.80;;;;;;;-6.69;50.16;98950.16;1704329;84;21488;-85
2022/03/11 01:43:53;;;;;;;7.65;3.52;;;;;;;-6.77;51.08;98953.19;1704353;84;21405;-85
2022/03/11 01:46:20;;;;;;;7.37;3.67;;;;;;;-6.79;50.53;98953.52;1704460;84;21016;-86
2022/03/11 01:48:47;;;;;;;10.53;4.53;;;;;;;-6.78;50.43;98948.84;1704394;84;21042;-88
2022/03/11 01:51:14;;;;;;;7.83;3.67;;;;;;;-6.79;50.36;98952.23;1704355;84;21003;-86
2022/03/11 01:53:41;;;;;;;9.33;3.55;;;;;;;-6.87;50.60;98952.59;1704377;84;21075;-86
2022/03/11 01:56:07;;;;;;;7.92;4.40;;;;;;;-6.89;50.63;98951.24;1704316;84;21008;-86
2022/03/11 01:58:35;;;;;;;8.13;4.33;;;;;;;-6.96;50.76;98952.59;1704223;84;21095;-86
2022/03/11 02:01:04;;;;;;;7.12;3.72;;;;;;;-7.00;50.90;98943.30;1704567;84;20992;-86
2022/03/11 02:03:31;;;;;;;9.78;4.37;;;;;;;-7.09;51.17;98947.55;1704176;84;21194;-87
2022/03/11 02:06:02;;;;;;;7.92;3.92;;;;;;;-7.08;51.19;98945.06;1704563;84;20972;-88
2022/03/11 02:08:30;;;;;;;7.75;3.85;;;;;;;-7.10;51.12;98944.48;1705365;83;21042;-88
2022/03/11 02:10:57;;;;;;;9.30;4.60;;;;;;;-7.17;51.32;98943.25;1706908;84;21003;-88
2022/03/11 02:13:24;;;;;;;8.30;4.00;;;;;;;-7.21;51.89;98942.20;1707061;84;21094;-88
2022/03/11 02:15:50;;;;;;;8.98;4.45;;;;;;;-7.23;52.08;98941.63;1707192;84;21348;-87
2022/03/11 02:18:17;;;;;;;8.38;3.80;;;;;;;-7.22;51.82;98952.41;1707110;84;21050;-87
2022/03/11 02:20:46;;;;;;;10.13;4.50;;;;;;;-7.22;51.86;98954.98;1706976;84;20979;-88
2022/03/11 02:23:15;;;;;;;11.80;5.03;;;;;;;-7.24;51.59;98952.70;1706994;84;20991;-88
2022/03/11 02:25:41;;;;;;;10.78;4.85;;;;;;;-7.29;51.62;98948.20;1707193;84;20967;-87
2022/03/11 02:28:08;;;;;;;10.68;4.78;;;;;;;-7.37;51.76;98953.31;1707027;84;21413;-87
2022/03/11 02:30:34;;;;;;;11.03;5.17;;;;;;;-7.49;52.06;98953.88;1707157;84;21031;-87
2022/03/11 02:33:01;;;;;;;13.00;5.67;;;;;;;-7.52;52.07;98960.16;1707133;84;21095;-87
2022/03/11 02:35:27;;;;;;;11.93;5.83;;;;;;;-7.52;51.85;98958.45;1707222;84;20983;-87
2022/03/11 02:37:54;;;;;;;17.55;5.20;;;;;;;-7.55;52.23;98960.45;1692564;83;20964;-87
2022/03/11 02:40:21;;;;;;;7.50;4.22;;;;;;;-7.52;51.80;98957.16;1692876;84;21065;-86
2022/03/11 02:42:48;;;;;;;8.48;4.60;;;;;;;-7.48;51.78;98959.13;1692819;85;21008;-86
2022/03/11 02:45:14;;;;;;;12.25;5.35;;;;;;;-7.52;52.00;98959.74;1692810;84;21059;-86
2022/03/11 02:47:41;;;;;;;11.20;5.05;;;;;;;-7.65;52.46;98958.56;1692810;84;21047;-86
2022/03/11 02:50:09;;;;;;;11.33;5.12;;;;;;;-7.71;52.69;98965.52;1692824;84;21032;-86
2022/03/11 02:52:36;;;;;;;10.80;5.70;;;;;;;-7.68;53.46;98956.70;1692690;85;21071;-87
2022/03/11 02:55:03;;;;;;;11.78;5.03;;;;;;;-7.85;53.66;98972.02;1692764;84;20973;-87
2022/03/11 02:57:29;;;;;;;9.28;4.65;;;;;;;-7.85;52.76;98964.72;1692720;84;21024;-87
2022/03/11 02:59:56;;;;;;;10.88;4.65;;;;;;;-7.80;52.61;98966.26;1692873;85;21370;-87
2022/03/11 03:02:22;;;;;;;13.15;4.80;;;;;;;-7.83;52.75;98964.39;1692718;85;21441;-87
2022/03/11 03:04:51;;;;;;;9.35;4.42;;;;;;;-7.80;52.93;98971.02;1692758;85;21401;-88
2022/03/11 03:07:17;;;;;;;8.00;4.25;;;;;;;-7.80;53.98;98967.16;1692802;84;21028;-88
2022/03/11 03:09:44;;;;;;;10.38;4.42;;;;;;;-7.78;54.68;98969.83;1716102;83;21424;-89
2022/03/11 03:12:10;;;;;;;7.25;3.80;;;;;;;-7.77;53.44;98960.89;1721930;83;21069;-88
2022/03/11 03:14:38;;;;;;;9.33;4.00;;;;;;;-7.75;53.43;98968.31;1722017;83;21013;-89
2022/03/11 03:17:06;;;;;;;8.40;3.62;;;;;;;-7.79;53.74;98957.73;1722047;83;21455;-88
2022/03/11 03:19:35;;;;;;;8.93;3.50;;;;;;;-7.82;55.12;98970.02;1722115;83;21484;-88
2022/03/11 03:22:03;;;;;;;13.68;4.58;;;;;;;-7.86;54.79;98967.67;1722166;83;21057;-88
2022/03/11 03:24:31;;;;;;;8.48;3.92;;;;;;;-7.84;54.21;98963.49;1722068;83;20981;-88
2022/03/11 03:26:57;;;;;;;8.30;3.42;;;;;;;-7.87;54.39;98967.58;1722277;83;21096;-88
2022/03/11 03:29:25;;;;;;;11.38;4.67;;;;;;;-7.97;54.67;98970.88;1722237;82;21002;-89
2022/03/11 03:31:57;;;;;;;8.60;4.65;;;;;;;-8.05;55.39;98975.99;1721975;83;21017;-88
2022/03/11 03:34:20;;;;;;;19.17;6.55;;;;;;;-8.17;54.54;98978.71;1721485;83;21057;-88
2022/03/11 03:36:47;;;;;;;10.05;5.50;;;;;;;-8.32;54.42;98968.36;1721690;82;21065;-89
2022/03/11 03:39:13;;;;;;;12.93;5.75;;;;;;;-8.43;54.75;98967.70;1722016;83;20966;-88
2022/03/11 03:41:40;;;;;;;8.83;5.25;;;;;;;-8.43;54.36;98963.84;1722174;83;22163;-89
2022/03/11 03:44:06;;;;;;;10.72;4.30;;;;;;;-8.45;54.18;98973.54;1722058;83;20986;-88
2022/03/11 03:46:33;;;;;;;12.85;5.10;;;;;;;-8.47;54.38;98986.33;1722014;83;21057;-89
2022/03/11 03:49:00;;;;;;;8.55;4.62;;;;;;;-8.54;55.28;98985.08;1722242;83;21002;-89
2022/03/11 03:51:26;;;;;;;11.53;5.12;;;;;;;-8.59;55.42;98980.44;1722120;83;21077;-88
2022/03/11 03:53:53;;;;;;;11.10;4.80;;;;;;;-8.58;55.07;98979.64;1722036;83;21418;-88
2022/03/11 03:56:20;;;;;;;10.53;4.70;;;;;;;-8.53;54.87;98971.81;1722209;83;20966;-90
2022/03/11 03:58:47;;;;;;;9.58;4.65;;;;;;;-8.47;54.49;98979.90;1721979;83;21022;-89
2022/03/11 04:01:14;;;;;;;11.73;4.92;;;;;;;-8.44;54.45;98981.77;1722144;83;20990;-90
2022/03/11 04:03:41;;;;;;;13.20;5.05;;;;;;;-8.44;56.24;98976.21;1722114;83;21449;-89
2022/03/11 04:06:08;;;;;;;10.20;4.97;;;;;;;-8.42;55.94;98986.20;1721921;83;20981;-90
2022/03/11 04:08:35;;;;;;;12.43;5.08;;;;;;;-8.44;55.00;98998.06;1722224;82;21452;-90
2022/03/11 04:11:01;;;;;;;8.90;4.33;;;;;;;-8.49;55.13;98995.22;1722098;83;21085;-88
2022/03/11 04:13:28;;;;;;;11.60;5.62;;;;;;;-8.58;55.74;98998.92;1722386;83;20990;-88
2022/03/11 04:15:55;;;;;;;8.93;4.58;;;;;;;-8.57;55.52;98994.26;1723627;82;21001;-89
2022/03/11 04:18:23;;;;;;;7.97;4.78;;;;;;;-8.53;56.26;98993.66;1722392;83;21014;-90
2022/03/11 04:20:50;;;;;;;10.95;4.97;;;;;;;-8.49;55.98;98993.94;1722114;83;21025;-90
2022/03/11 04:23:17;;;;;;;10.45;5.12;;;;;;;-8.46;56.47;98997.48;1722086;83;21037;-90
2022/03/11 04:25:43;;;;;;;11.00;5.40;;;;;;;-8.50;56.79;98998.59;1721980;83;21033;-89
2022/03/11 04:28:11;;;;;;;12.68;5.47;;;;;;;-8.55;57.00;98992.31;1721747;83;21002;-87
2022/03/11 04:30:38;;;;;;;16.37;6.55;;;;;;;-8.67;57.94;99006.56;1722166;83;21427;-86
2022/03/11 04:33:04;;;;;;;16.70;6.15;;;;;;;-8.81;58.79;99002.23;1722019;83;21065;-88
2022/03/11 04:35:31;;;;;;;13.60;6.25;;;;;;;-8.92;59.19;99009.25;1722107;83;21064;-86
2022/03/11 04:37:58;;;;;;;22.80;6.92;;;;;;;-8.94;57.87;99010.80;1708069;83;21543;-86
2022/03/11 04:40:24;;;;;;;17.73;6.17;;;;;;;-8.92;58.43;99016.95;1707043;84;20960;-86
2022/03/11 04:42:51;;;;;;;17.40;6.35;;;;;;;-8.88;57.56;99010.81;1707128;84;21024;-86
2022/03/11 04:45:18;;;;;;;13.38;5.40;;;;;;;-8.89;57.49;99007.75;1707160;84;20979;-86
2022/03/11 04:47:46;;;;;;;14.83;6.50;;;;;;;-8.88;57.39;99007.38;1707109;84;21043;-87
2022/03/11 04:50:13;;;;;;;13.75;6.90;;;;;;;-8.89;58.85;99012.89;1707149;84;20956;-88
2022/03/11 04:52:40;;;;;;;10.98;5.72;;;;;;;-8.91;58.13;99008.06;1706880;84;21016;-88
2022/03/11 04:55:07;;;;;;;12.00;5.17;;;;;;;-8.93;58.86;99015.18;1707318;84;21413;-88
2022/03/11 04:57:34;;;;;;;13.45;5.42;;;;;;;-8.98;58.46;99008.86;1707302;84;21441;-88
2022/03/11 05:00:03;;;;;;;12.65;5.40;;;;;;;-9.03;58.34;99012.02;1707222;84;21472;-87
2022/03/11 05:02:30;;;;;;;13.95;6.22;;;;;;;-9.06;58.17;99014.79;1707142;84;21437;-87
2022/03/11 05:04:56;;;;;;;13.85;6.22;;;;;;;-9.09;59.73;99018.43;1707205;84;21023;-89
2022/03/11 05:07:23;;;;;;;14.93;6.20;;;;;;;-9.07;58.51;99015.17;1707252;84;21003;-88
2022/03/11 05:09:49;;;;;;;13.05;4.67;;;;;;;-9.05;58.52;99021.70;1702154;83;21060;-88
2022/03/11 05:12:16;;;;;;;12.33;5.00;;;;;;;-9.06;58.76;99015.66;1699200;84;21515;-88
2022/03/11 05:14:44;;;;;;;12.13;5.40;;;;;;;-9.08;58.72;99018.54;1699122;84;21000;-88
2022/03/11 05:17:11;;;;;;;13.60;5.45;;;;;;;-9.07;58.39;99016.45;1699155;84;21047;-88
2022/03/11 05:19:39;;;;;;;13.13;5.72;;;;;;;-9.08;58.11;99013.40;1699142;84;20975;-88
2022/03/11 05:22:06;;;;;;;10.45;5.30;;;;;;;-9.09;58.34;99017.15;1699202;84;21098;-88
2022/03/11 05:24:34;;;;;;;12.68;5.53;;;;;;;-9.11;58.02;99017.05;1699053;84;20980;-88
2022/03/11 05:27:02;;;;;;;16.48;6.10;;;;;;;-9.15;58.29;99017.24;1699257;84;21460;-88
2022/03/11 05:29:31;;;;;;;14.07;5.30;;;;;;;-9.15;58.20;99013.39;1699231;84;21023;-88
2022/03/11 05:31:59;;;;;;;13.15;5.08;;;;;;;-9.16;58.35;99014.19;1699175;84;21012;-88
2022/03/11 05:34:25;;;;;;;11.30;5.62;;;;;;;-9.19;58.70;99021.69;1699072;84;21059;-88
2022/03/11 05:36:53;;;;;;;15.35;6.35;;;;;;;-9.22;59.00;99016.75;1698965;83;21465;-88
2022/03/11 05:39:20;;;;;;;16.30;5.85;;;;;;;-9.13;58.31;99009.64;1699204;84;20980;-88
2022/03/11 05:41:47;;;;;;;10.75;4.75;;;;;;;-9.06;58.31;99018.23;1699103;84;21027;-88
2022/03/11 05:44:17;;;;;;;15.83;6.00;;;;;;;-9.06;58.47;99015.66;1698999;84;21450;-87
2022/03/11 05:46:44;;;;;;;16.30;5.90;;;;;;;-8.98;57.85;99012.71;1698975;84;21020;-87
2022/03/11 05:49:13;;;;;;;14.95;6.35;;;;;;;-8.92;57.48;99015.28;1699134;84;21477;-88
2022/03/11 05:51:39;;;;;;;12.07;5.25;;;;;;;-8.91;57.69;99017.44;1699083;84;21457;-88
2022/03/11 05:54:06;;;;;;;11.57;5.92;;;;;;;-8.96;58.37;99018.44;1699142;84;21050;-87
2022/03/11 05:56:34;;;;;;;13.43;6.03;;;;;;;-8.92;58.27;99013.09;1699081;84;21044;-87
2022/03/11 05:59:03;;;;;;;14.58;5.85;;;;;;;-8.82;57.62;99019.70;1698833;84;21063;-88
2022/03/11 06:01:30;;;;;;;15.72;6.37;;;;;;;-8.78;58.51;99017.44;1699058;84;20976;-87
2022/03/11 06:03:56;;;;;;;14.85;6.35;;;;;;;-8.66;57.80;99013.47;1699116;84;21070;-88
2022/03/11 06:06:22;;;;;;;14.10;6.00;;;;;;;-8.58;57.67;99020.77;1699127;84;21425;-87
2022/03/11 06:08:49;;;;;;;15.68;7.30;;;;;;;-8.51;57.43;99014.78;1699162;84;20996;-87
2022/03/11 06:11:16;;;;;;;15.75;6.53;;;;;;;-8.46;57.27;99013.80;1699152;84;21074;-87
2022/03/11 06:13:43;;;;;;;14.83;6.50;;;;;;;-8.38;57.23;99005.28;1699026;84;21004;-87
2022/03/11 06:16:10;;;;;;;15.83;7.22;;;;;;;-8.33;57.26;99010.69;1699024;84;21001;-87
2022/03/11 06:18:36;;;;;;;13.30;6.97;;;;;;;-8.26;57.00;99010.30;1679127;84;21284;-86
2022/03/11 06:21:03;;;;;;;19.37;6.80;;;;;;;-8.20;56.82;99013.23;1699093;84;21004;-88
2022/03/11 06:23:31;;;;;;;17.80;6.45;;;;;;;-8.15;56.96;99012.25;1699167;84;21386;-87
2022/03/11 06:25:58;;;;;;;17.42;7.60;;;;;;;-8.04;56.84;99015.45;1698929;84;21004;-88
2022/03/11 06:28:24;;;;;;;16.17;6.25;;;;;;;-7.96;56.46;99014.24;1699197;84;21071;-87
2022/03/11 06:30:52;;;;;;;15.53;6.87;;;;;;;-7.84;56.34;99020.53;1698966;84;21028;-87
2022/03/11 06:33:20;;;;;;;15.53;7.08;;;;;;;-7.76;56.13;99021.89;1699013;84;21370;-87
2022/03/11 06:35:48;;;;;;;24.23;6.97;;;;;;;-7.68;56.02;99023.63;1698953;84;21043;-85
2022/03/11 06:38:15;;;;;;;15.48;6.97;;;;;;;-7.57;55.87;99025.14;1699172;84;20975;-85
2022/03/11 06:40:44;;;;;;;16.10;6.90;;;;;;;-7.48;55.59;99020.92;1698207;84;21061;-86
2022/03/11 06:43:11;;;;;;;15.93;6.80;;;;;;;-7.39;55.57;99019.31;1699143;84;21544;-85
2022/03/11 06:45:38;;;;;;;14.23;6.70;;;;;;;-7.26;55.35;99021.30;1702501;83;20962;-86
2022/03/11 06:48:05;;;;;;;13.58;5.95;;;;;;;-7.15;55.28;99013.77;1707009;84;20992;-86
2022/03/11 06:50:32;;;;;;;15.95;6.87;;;;;;;-7.06;54.84;99020.74;1706892;84;21037;-87
2022/03/11 06:52:58;;;;;;;12.28;6.10;;;;;;;-6.98;54.68;99024.17;1704342;84;21018;-86
2022/03/11 06:55:25;;;;;;;18.42;6.92;;;;;;;-6.88;54.59;99014.88;1704432;84;21415;-87
2022/03/11 06:57:56;;;;;;;14.68;6.35;;;;;;;-6.82;54.41;99020.36;1676473;84;21473;-88
2022/03/11 07:00:22;;;;;;;15.78;6.37;;;;;;;-6.73;54.26;99014.82;1704332;84;20985;-88
2022/03/11 07:02:49;;;;;;;14.93;6.70;;;;;;;-6.66;53.87;99015.67;1704271;84;21026;-89
2022/03/11 07:05:17;;;;;;;14.47;5.97;;;;;;;-6.57;53.79;99009.25;1704109;84;21100;-87
2022/03/11 07:07:43;;;;;;;15.95;7.20;;;;;;;-6.45;53.76;99010.33;1704363;84;20937;-88
2022/03/11 07:10:10;;;;;;;16.45;7.37;;;;;;;-6.33;53.69;99003.63;1705797;83;21025;-86
2022/03/11 07:12:37;;;;;;;16.15;7.00;;;;;;;-6.21;53.29;99000.44;1707226;84;21063;-87
2022/03/11 07:15:07;;;;;;;13.28;6.58;;;;;;;-6.09;53.13;99005.36;1706968;84;21053;-84
2022/03/11 07:17:35;;;;;;;14.38;5.90;;;;;;;-5.97;52.52;99005.09;1707290;84;21006;-88
2022/03/11 07:20:05;;;;;;;12.07;4.97;;;;;;;-5.90;51.59;99007.17;1707089;84;21447;-88
2022/03/11 07:22:32;;;;;;;13.68;6.08;;;;;;;-5.79;50.77;98999.09;1707044;84;20973;-87
2022/03/11 07:25:02;;;;;;;13.10;6.60;;;;;;;-5.68;51.45;99004.83;1706683;84;21080;-88
2022/03/11 07:27:29;;;;;;;11.95;5.87;;;;;;;-5.61;51.22;98997.47;1706752;84;21041;-87
2022/03/11 07:29:56;;;;;;;12.00;5.53;;;;;;;-5.51;50.07;99001.42;1707061;84;21429;-88
2022/03/11 07:32:24;;;;;;;13.08;4.83;;;;;;;-5.44;50.41;99000.91;1697847;84;20990;-87
2022/03/11 07:34:52;;;;;;;12.35;5.05;;;;;;;-5.35;49.41;98995.30;1648860;87;21050;-80
2022/03/11 07:37:21;;;;;;;11.40;5.17;;;;;;;-5.22;48.17;98998.12;1683032;85;21086;-90
2022/03/11 07:39:49;;;;;;;12.78;4.90;;;;;;;-5.14;49.08;98992.43;1695171;85;21089;-78
2022/03/11 07:42:16;;;;;;;7.97;4.05;;;;;;;-5.07;47.32;98997.11;1695209;85;21018;-81
2022/03/11 07:44:44;;;;;;;11.70;4.62;;;;;;;-4.98;47.81;98988.48;1693955;84;21073;-85
2022/03/11 07:47:10;;;;;;;9.70;4.67;;;;;;;-4.87;48.66;98984.26;1676100;86;21019;-87
2022/03/11 07:49:37;;;;;;;10.30;4.97;;;;;;;-4.80;47.93;98980.75;1676178;86;21349;-84
2022/03/11 07:52:05;;;;;;;8.70;4.22;;;;;;;-4.73;48.01;98977.14;1675959;86;21059;-85
2022/03/11 07:54:32;;;;;;;9.48;3.50;;;;;;;-4.65;47.87;98975.82;1659531;86;21082;-87
2022/03/11 07:56:59;;;;;;;9.73;4.35;;;;;;;-4.57;46.47;98977.04;1633317;88;21070;-79
2022/03/11 07:59:29;;;;;;;5.17;2.83;;;;;;;-4.55;43.71;98981.00;1659146;85;21026;-85
2022/03/11 08:01:53;;;;;;;6.12;3.35;;;;;;;-4.65;42.39;98984.45;1693879;85;21057;-86
2022/03/11 08:04:22;;;;;;;7.60;3.37;;;;;;;-4.58;43.42;98973.08;1694937;84;20994;-86
2022/03/11 08:06:48;;;;;;;7.53;3.67;;;;;;;-4.52;44.90;98970.38;1695253;85;21079;-86
2022/03/11 08:09:15;;;;;;;6.75;3.17;;;;;;;-4.46;43.34;98965.91;1695488;83;20986;-85
2022/03/11 08:11:41;;;;;;;6.25;3.27;;;;;;;-4.49;41.95;98964.45;1657854;86;21014;-86
2022/03/11 08:14:08;;;;;;;7.80;3.52;;;;;;;-4.40;42.40;98962.73;1705796;84;21072;-87
2022/03/11 08:16:34;;;;;;;7.08;2.87;;;;;;;-4.32;42.92;98966.95;1657992;86;21027;-87
2022/03/11 08:19:02;;;;;;;5.72;3.12;;;;;;;-4.32;41.10;98959.19;1657908;85;21487;-86
2022/03/11 08:21:28;;;;;;;6.30;2.90;;;;;;;-4.27;41.88;98957.69;1705677;84;20985;-87
2022/03/11 08:23:55;;;;;;;7.10;3.10;;;;;;;-4.18;41.23;98961.09;1658038;86;21020;-87
2022/03/11 08:26:23;;;;;;;7.47;2.62;;;;;;;-4.24;38.57;98961.30;1658129;85;21395;-87
2022/03/11 08:28:49;;;;;;;8.73;3.30;;;;;;;-4.15;40.15;98950.89;1705737;84;20989;-86
2022/03/11 08:31:17;;;;;;;20.30;4.10;;;;;;;-4.04;41.25;98953.53;1658014;86;21470;-86
2022/03/11 08:33:43;;;;;;;6.70;3.00;;;;;;;-4.02;40.87;98936.78;1657901;86;21502;-86
2022/03/11 08:36:10;;;;;;;6.33;3.00;;;;;;;-3.91;40.84;98939.42;1705925;83;20973;-86
2022/03/11 08:38:37;;;;;;;6.87;3.25;;;;;;;-3.91;40.28;98939.84;1658031;87;21081;-85
2022/03/11 08:41:06;;;;;;;6.35;2.92;;;;;;;-3.90;40.95;98926.08;1705755;84;21399;-86
2022/03/11 08:43:32;;;;;;;6.33;3.37;;;;;;;-3.85;39.73;98923.27;1657974;86;21479;-86
2022/03/11 08:45:59;;;;;;;7.92;3.60;;;;;;;-3.83;40.69;98917.73;1658001;85;21411;-86
2022/03/11 08:48:25;;;;;;;6.25;3.52;;;;;;;-3.71;41.63;98922.16;1705737;84;21036;-86
2022/03/11 08:50:52;;;;;;;5.92;2.98;;;;;;;-3.66;40.68;98919.75;1658138;86;21005;-86
2022/03/11 08:53:19;;;;;;;7.53;3.80;;;;;;;-3.56;41.04;98921.03;1705659;83;21041;-86
2022/03/11 08:55:46;;;;;;;6.83;3.60;;;;;;;-3.49;39.18;98912.67;1705784;84;21432;-86
2022/03/11 08:58:13;;;;;;;6.05;2.62;;;;;;;-3.45;40.00;98914.98;1705846;84;21017;-86
2022/03/11 09:00:41;;;;;;;6.37;2.98;;;;;;;-3.34;38.62;98920.61;1658027;87;21049;-85
2022/03/11 09:03:07;;;;;;;5.35;3.12;;;;;;;-3.36;38.26;98908.02;1657981;86;21502;-86
2022/03/11 09:05:34;;;;;;;5.08;2.80;;;;;;;-3.22;39.50;98905.58;1658106;87;21033;-86
2022/03/11 09:08:01;;;;;;;7.75;3.77;;;;;;;-3.05;39.29;98897.56;1657972;87;21037;-85
2022/03/11 09:10:29;;;;;;;7.15;3.70;;;;;;;-2.96;38.74;98894.44;1656312;85;21069;-85
2022/03/11 09:12:56;;;;;;;7.58;3.60;;;;;;;-2.92;37.96;98895.04;1638275;87;21757;-85
2022/03/11 09:15:23;;;;;;;6.92;3.30;;;;;;;-2.92;39.18;98885.96;1650088;87;21041;-85
2022/03/11 09:17:49;;;;;;;6.55;3.37;;;;;;;-2.89;37.51;98889.98;1650237;87;21029;-85
2022/03/11 09:20:16;;;;;;;5.25;2.80;;;;;;;-2.81;38.35;98896.77;1650265;86;21133;-85
2022/03/11 09:22:42;;;;;;;7.08;3.25;;;;;;;-2.80;38.21;98889.44;1650028;87;21026;-85
2022/03/11 09:25:11;;;;;;;8.10;3.47;;;;;;;-2.73;38.18;98891.46;1650184;87;21073;-85
2022/03/11 09:27:39;;;;;;;7.10;3.60;;;;;;;-2.71;37.87;98892.80;1650163;86;21431;-85
2022/03/11 09:30:08;;;;;;;7.47;3.60;;;;;;;-2.67;38.69;98892.09;1650028;87;21466;-85
2022/03/11 09:32:36;;;;;;;5.40;3.12;;;;;;;-2.60;38.60;98879.83;1650293;87;21431;-85
2022/03/11 09:35:04;;;;;;;6.12;3.12;;;;;;;-2.53;38.47;98883.11;1650198;87;21458;-85
2022/03/11 09:37:32;;;;;;;7.28;3.52;;;;;;;-2.55;35.89;98880.88;1650257;87;21013;-86
2022/03/11 09:39:59;;;;;;;4.67;2.67;;;;;;;-2.46;35.82;98889.42;1650045;87;21045;-85
2022/03/11 09:42:25;;;;;;;5.62;2.98;;;;;;;-2.45;36.52;98874.73;1650260;87;21106;-85
2022/03/11 09:44:55;;;;;;;6.25;2.87;;;;;;;-2.33;36.77;98870.41;1650233;87;21085;-85
2022/03/11 09:47:23;;;;;;;6.45;2.92;;;;;;;-2.26;36.73;98864.19;1650259;87;21038;-85
2022/03/11 09:49:51;;;;;;;5.80;3.58;;;;;;;-2.20;35.33;98863.51;1650245;87;21161;-85
2022/03/11 09:52:23;;;;;;;6.53;3.12;;;;;;;-2.05;36.84;98860.98;1650130;87;21450;-85
2022/03/11 09:54:51;;;;;;;5.33;2.60;;;;;;;-2.02;34.31;98869.80;1650117;87;21105;-85
2022/03/11 09:57:22;;;;;;;5.75;2.40;;;;;;;-1.99;33.24;98866.41;1650151;87;21025;-85
2022/03/11 09:59:49;;;;;;;5.90;2.90;;;;;;;-1.86;35.58;98848.23;1650192;87;21499;-85
2022/03/11 10:02:17;;;;;;;5.37;2.60;;;;;;;-1.71;35.07;98857.37;1650263;86;21057;-85
2022/03/11 10:04:53;;;;;;;5.72;2.80;;;;;;;-1.52;34.97;98853.66;1650083;87;21073;-85
2022/03/11 10:07:30;;;;;;;5.58;2.83;;;;;;;-1.35;35.16;98854.20;1650089;87;21109;-85
2022/03/11 10:10:01;;;;;;;4.33;2.67;;;;;;;-1.28;34.92;98855.29;1642865;86;21048;-84
2022/03/11 10:12:30;;;;;;;4.15;2.33;;;;;;;-1.26;33.41;98850.60;1648502;87;21061;-85
2022/03/11 10:15:03;;;;;;;4.42;2.33;;;;;;;-1.20;33.05;98848.19;1650330;87;21080;-85
2022/03/11 10:17:42;;;;;;;6.17;2.72;;;;;;;-1.04;32.11;98833.48;1650229;87;21006;-85
2022/03/11 10:20:15;;;;;;;19.77;7.10;;;;;;;-0.85;34.15;98848.82;1650183;87;21025;-85
2022/03/11 10:22:46;;;;;;;7.97;3.80;;;;;;;-0.80;33.07;98851.55;1650231;87;21105;-85
2022/03/11 10:25:25;;;;;;;5.22;2.40;;;;;;;-0.78;31.97;98835.98;1650239;87;21458;-85
2022/03/11 10:28:10;;;;;;;5.05;2.30;;;;;;;-0.62;32.47;98841.23;1650063;87;21037;-85
2022/03/11 10:30:42;;;;;;;4.15;2.17;;;;;;;-0.67;29.18;98840.66;1650266;87;21037;-86
2022/03/11 10:33:13;;;;;;;6.47;2.95;;;;;;;-0.77;30.79;98831.23;1650216;87;21041;-86
2022/03/11 10:35:47;;;;;;;6.10;2.45;;;;;;;-0.68;30.43;98838.91;1650217;87;21097;-86
2022/03/11 10:38:16;;;;;;;;;;;;;;;-0.61;30.08;98827.36;1652710;87;21065;-86
2022/03/11 10:40:58;;;;;;;3.98;2.27;;;;;;;-0.60;30.39;98833.02;1650310;86;20095;-85
2022/03/11 10:43:29;;;;;;;6.45;2.62;;;;;;;-0.81;28.88;98831.16;1650249;87;21534;-85
2022/03/11 10:46:06;;;;;;;3.58;2.25;;;;;;;-0.83;28.58;98825.45;1650061;86;21101;-85
2022/03/11 10:48:49;;;;;;;4.67;2.55;;;;;;;-0.61;29.48;98819.14;1650213;87;21069;-85
2022/03/11 10:51:35;;;;;;;5.42;2.55;;;;;;;0.31;31.16;98817.66;1650203;87;21005;-85
2022/03/11 10:54:07;;;;;;;3.58;1.98;;;;;;;1.63;26.25;98812.27;1650051;87;21013;-86
2022/03/11 10:56:39;;;;;;;6.20;2.95;;;;;;;3.11;25.11;98809.47;1650161;87;21510;-86
2022/03/11 10:59:12;;;;;;;2.90;2.02;;;;;;;4.02;23.78;98800.47;1650340;87;21482;-86
2022/03/11 11:01:43;;;;;;;4.53;2.42;;;;;;;5.27;23.93;98806.63;1650046;87;20998;-86
2022/03/11 11:04:13;;;;;;;2.95;2.30;;;;;;;6.22;21.56;98800.83;1649725;87;20998;-86
2022/03/11 11:06:41;;;;;;;4.35;2.75;;;;;;;7.36;22.10;98786.61;1650160;86;21108;-85
2022/03/11 11:09:11;;;;;;;3.60;2.37;;;;;;;7.51;18.01;98787.00;1650232;87;20997;-85
2022/03/11 11:11:40;;;;;;;4.40;2.65;;;;;;;8.75;19.41;98791.50;1649982;86;21211;-85
2022/03/11 11:14:08;;;;;;;6.08;2.45;;;;;;;9.37;20.36;98780.25;1650078;87;21064;-85
2022/03/11 11:16:40;;;;;;;4.83;3.10;;;;;;;10.17;18.58;98777.41;1650201;87;21041;-85
2022/03/11 11:19:10;;;;;;;4.60;3.20;;;;;;;10.84;17.77;98777.69;1650222;86;21479;-85
2022/03/11 11:21:43;;;;;;;4.37;3.22;;;;;;;11.69;20.34;98765.84;1650110;87;21168;-85
2022/03/11 11:24:15;;;;;;;4.80;3.10;;;;;;;12.31;18.86;98770.23;1650161;87;21037;-85
2022/03/11 11:26:49;;;;;;;4.20;3.00;;;;;;;12.00;15.11;98757.17;1648169;87;21124;-85
2022/03/11 11:29:26;;;;;;;3.85;3.00;;;;;;;12.60;18.96;98765.09;1650250;87;22160;-86
2022/03/11 11:31:54;;;;;;;5.25;3.17;;;;;;;11.83;14.59;98759.36;1650221;87;21029;-85